sensor_id;sensor_type;location;lat;lon;timestamp;P1;durP1;ratioP1;P2;durP2;ratioP2
29218;SDS011;16421;50.202;7.852;2023-07-02T10:38:25;13.43;;;9.02;;
29218;SDS011;16421;50.202;7.852;2023-07-02T10:43:29;14.82;;;9.52;;
29218;SDS011;16421;50.202;7.852;2023-07-02T10:48:35;19.40;;;10.18;;
29218;SDS011;16421;50.202;7.852;2023-07-02T10:53:38;16.77;;;10.60;;
29218;SDS011;16421;50.202;7.852;2023-07-02T10:58:41;19.25;;;10.85;;
29218;SDS011;16421;50.202;7.852;2023-07-02T11:03:54;18.98;;;11.02;;
29218;SDS011;16421;50.202;7.852;2023-07-02T11:08:59;17.05;;;10.43;;
29218;SDS011;16421;50.202;7.852;2023-07-02T11:14:02;15.80;;;9.52;;
29218;SDS011;16421;50.202;7.852;2023-07-02T11:19:07;19.08;;;10.18;;
29218;SDS011;16421;50.202;7.852;2023-07-02T11:24:11;16.23;;;10.07;;
29218;SDS011;16421;50.202;7.852;2023-07-02T11:29:17;14.85;;;9.48;;
29218;SDS011;16421;50.202;7.852;2023-07-02T11:34:22;19.23;;;10.55;;
29218;SDS011;16421;50.202;7.852;2023-07-02T11:39:26;19.35;;;10.70;;
29218;SDS011;16421;50.202;7.852;2023-07-02T11:44:29;15.65;;;9.90;;
29218;SDS011;16421;50.202;7.852;2023-07-02T11:49:34;17.45;;;11.00;;
29218;SDS011;16421;50.202;7.852;2023-07-02T11:54:37;20.05;;;11.68;;
29218;SDS011;16421;50.202;7.852;2023-07-02T11:59:41;18.50;;;10.15;;
29218;SDS011;16421;50.202;7.852;2023-07-02T12:04:46;16.45;;;10.20;;
29218;SDS011;16421;50.202;7.852;2023-07-02T12:09:49;17.73;;;10.60;;
29218;SDS011;16421;50.202;7.852;2023-07-02T12:14:53;17.63;;;11.02;;
29218;SDS011;16421;50.202;7.852;2023-07-02T12:19:57;18.60;;;10.25;;
29218;SDS011;16421;50.202;7.852;2023-07-02T12:25:01;18.60;;;9.82;;
29218;SDS011;16421;50.202;7.852;2023-07-02T12:30:05;16.23;;;8.98;;
29218;SDS011;16421;50.202;7.852;2023-07-02T12:35:11;14.43;;;8.87;;
29218;SDS011;16421;50.202;7.852;2023-07-02T12:40:14;19.60;;;11.27;;
29218;SDS011;16421;50.202;7.852;2023-07-02T12:45:20;17.30;;;11.20;;
29218;SDS011;16421;50.202;7.852;2023-07-02T12:50:25;12.52;;;7.82;;
29218;SDS011;16421;50.202;7.852;2023-07-02T12:55:29;20.73;;;11.63;;
29218;SDS011;16421;50.202;7.852;2023-07-02T13:00:33;15.75;;;9.38;;
29218;SDS011;16421;50.202;7.852;2023-07-02T13:05:37;19.35;;;10.35;;
29218;SDS011;16421;50.202;7.852;2023-07-02T13:10:43;19.92;;;11.38;;
29218;SDS011;16421;50.202;7.852;2023-07-02T13:15:47;20.42;;;11.48;;
29218;SDS011;16421;50.202;7.852;2023-07-02T13:20:52;19.60;;;10.80;;
29218;SDS011;16421;50.202;7.852;2023-07-02T13:25:55;21.88;;;11.90;;
29218;SDS011;16421;50.202;7.852;2023-07-02T13:30:58;18.65;;;10.73;;
29218;SDS011;16421;50.202;7.852;2023-07-02T13:36:03;19.52;;;10.00;;
29218;SDS011;16421;50.202;7.852;2023-07-02T13:41:07;13.57;;;8.80;;
29218;SDS011;16421;50.202;7.852;2023-07-02T13:46:10;19.15;;;11.45;;
29218;SDS011;16421;50.202;7.852;2023-07-02T13:51:15;15.52;;;9.57;;
29218;SDS011;16421;50.202;7.852;2023-07-02T13:56:18;15.65;;;9.50;;
29218;SDS011;16421;50.202;7.852;2023-07-02T14:01:23;20.15;;;11.15;;
29218;SDS011;16421;50.202;7.852;2023-07-02T14:06:27;20.53;;;11.83;;
29218;SDS011;16421;50.202;7.852;2023-07-02T14:11:30;17.40;;;10.32;;
29218;SDS011;16421;50.202;7.852;2023-07-02T14:16:35;20.30;;;12.07;;
29218;SDS011;16421;50.202;7.852;2023-07-02T14:21:39;18.90;;;10.25;;
29218;SDS011;16421;50.202;7.852;2023-07-02T14:26:42;20.73;;;10.48;;
29218;SDS011;16421;50.202;7.852;2023-07-02T14:31:47;19.40;;;11.55;;
29218;SDS011;16421;50.202;7.852;2023-07-02T14:36:50;18.20;;;10.55;;
29218;SDS011;16421;50.202;7.852;2023-07-02T14:41:54;17.35;;;9.82;;
29218;SDS011;16421;50.202;7.852;2023-07-02T14:46:58;17.60;;;10.40;;
29218;SDS011;16421;50.202;7.852;2023-07-02T14:52:08;16.50;;;10.80;;
29218;SDS011;16421;50.202;7.852;2023-07-02T14:57:11;16.30;;;10.07;;
29218;SDS011;16421;50.202;7.852;2023-07-02T15:02:17;16.17;;;9.32;;
29218;SDS011;16421;50.202;7.852;2023-07-02T15:07:21;18.65;;;12.25;;
29218;SDS011;16421;50.202;7.852;2023-07-02T15:12:24;16.80;;;10.18;;
29218;SDS011;16421;50.202;7.852;2023-07-02T15:17:30;15.48;;;9.25;;
29218;SDS011;16421;50.202;7.852;2023-07-02T15:22:33;14.45;;;9.43;;
29218;SDS011;16421;50.202;7.852;2023-07-02T15:27:37;12.07;;;7.88;;
29218;SDS011;16421;50.202;7.852;2023-07-02T15:32:42;17.15;;;10.15;;
29218;SDS011;16421;50.202;7.852;2023-07-02T15:37:45;21.60;;;10.67;;
29218;SDS011;16421;50.202;7.852;2023-07-02T15:42:50;19.60;;;10.50;;
29218;SDS011;16421;50.202;7.852;2023-07-02T15:47:55;16.98;;;10.18;;
29218;SDS011;16421;50.202;7.852;2023-07-02T15:52:59;18.33;;;10.27;;
29218;SDS011;16421;50.202;7.852;2023-07-02T15:58:04;18.03;;;10.43;;
29218;SDS011;16421;50.202;7.852;2023-07-02T16:03:09;16.13;;;10.10;;
29218;SDS011;16421;50.202;7.852;2023-07-02T16:08:12;16.88;;;9.65;;
29218;SDS011;16421;50.202;7.852;2023-07-02T16:13:16;12.55;;;7.57;;
29218;SDS011;16421;50.202;7.852;2023-07-02T16:18:20;12.60;;;8.38;;
29218;SDS011;16421;50.202;7.852;2023-07-02T16:23:24;14.52;;;9.15;;
29218;SDS011;16421;50.202;7.852;2023-07-02T16:28:30;19.02;;;11.10;;
29218;SDS011;16421;50.202;7.852;2023-07-02T16:33:36;16.73;;;8.80;;
29218;SDS011;16421;50.202;7.852;2023-07-02T16:38:39;17.00;;;9.88;;
29218;SDS011;16421;50.202;7.852;2023-07-02T16:43:43;19.15;;;9.50;;
29218;SDS011;16421;50.202;7.852;2023-07-02T16:48:47;15.30;;;9.50;;
29218;SDS011;16421;50.202;7.852;2023-07-02T16:53:51;13.32;;;8.10;;
29218;SDS011;16421;50.202;7.852;2023-07-02T16:58:55;14.05;;;7.80;;
29218;SDS011;16421;50.202;7.852;2023-07-02T17:04:00;17.13;;;8.88;;
29218;SDS011;16421;50.202;7.852;2023-07-02T17:09:17;15.65;;;9.45;;
29218;SDS011;16421;50.202;7.852;2023-07-02T17:14:23;15.18;;;9.13;;
29218;SDS011;16421;50.202;7.852;2023-07-02T17:19:33;18.80;;;9.25;;
29218;SDS011;16421;50.202;7.852;2023-07-02T17:24:39;16.10;;;9.50;;
29218;SDS011;16421;50.202;7.852;2023-07-02T17:29:47;18.65;;;8.85;;
29218;SDS011;16421;50.202;7.852;2023-07-02T17:34:53;14.43;;;8.68;;
29218;SDS011;16421;50.202;7.852;2023-07-02T17:39:56;14.07;;;8.83;;
29218;SDS011;16421;50.202;7.852;2023-07-02T17:45:00;15.13;;;8.65;;
29218;SDS011;16421;50.202;7.852;2023-07-02T17:50:06;12.18;;;7.40;;
29218;SDS011;16421;50.202;7.852;2023-07-02T17:55:19;16.23;;;9.50;;
29218;SDS011;16421;50.202;7.852;2023-07-02T18:00:22;15.10;;;8.95;;
29218;SDS011;16421;50.202;7.852;2023-07-02T18:05:27;12.45;;;7.15;;
29218;SDS011;16421;50.202;7.852;2023-07-02T18:10:32;12.32;;;7.07;;
29218;SDS011;16421;50.202;7.852;2023-07-02T18:15:35;15.40;;;7.82;;
29218;SDS011;16421;50.202;7.852;2023-07-02T18:20:40;15.32;;;8.73;;
29218;SDS011;16421;50.202;7.852;2023-07-02T18:25:43;19.13;;;9.67;;
29218;SDS011;16421;50.202;7.852;2023-07-02T18:30:48;14.95;;;8.80;;
29218;SDS011;16421;50.202;7.852;2023-07-02T18:35:53;14.50;;;8.38;;
29218;SDS011;16421;50.202;7.852;2023-07-02T18:41:00;10.50;;;6.28;;
29218;SDS011;16421;50.202;7.852;2023-07-02T18:46:05;11.52;;;6.43;;
29218;SDS011;16421;50.202;7.852;2023-07-02T18:51:09;13.95;;;8.38;;
29218;SDS011;16421;50.202;7.852;2023-07-02T18:56:13;14.77;;;7.82;;
29218;SDS011;16421;50.202;7.852;2023-07-02T19:01:16;13.18;;;7.65;;
29218;SDS011;16421;50.202;7.852;2023-07-02T19:06:21;13.85;;;7.43;;
29218;SDS011;16421;50.202;7.852;2023-07-02T19:11:24;16.07;;;8.23;;
29218;SDS011;16421;50.202;7.852;2023-07-02T19:16:30;16.13;;;8.50;;
29218;SDS011;16421;50.202;7.852;2023-07-02T19:21:34;17.10;;;7.93;;
29218;SDS011;16421;50.202;7.852;2023-07-02T19:26:38;13.70;;;7.57;;
29218;SDS011;16421;50.202;7.852;2023-07-02T19:31:41;19.48;;;8.27;;
29218;SDS011;16421;50.202;7.852;2023-07-02T19:36:48;15.23;;;7.20;;
29218;SDS011;16421;50.202;7.852;2023-07-02T19:41:51;15.97;;;7.03;;
29218;SDS011;16421;50.202;7.852;2023-07-02T19:46:55;13.95;;;7.35;;
29218;SDS011;16421;50.202;7.852;2023-07-02T19:51:59;10.02;;;5.93;;
29218;SDS011;16421;50.202;7.852;2023-07-02T19:57:03;10.98;;;5.28;;
29218;SDS011;16421;50.202;7.852;2023-07-02T20:02:08;10.95;;;5.50;;
29218;SDS011;16421;50.202;7.852;2023-07-02T20:07:13;11.15;;;6.43;;
29218;SDS011;16421;50.202;7.852;2023-07-02T20:12:17;15.05;;;7.28;;
29218;SDS011;16421;50.202;7.852;2023-07-02T20:17:20;9.05;;;5.45;;
29218;SDS011;16421;50.202;7.852;2023-07-02T20:22:26;12.60;;;6.45;;
29218;SDS011;16421;50.202;7.852;2023-07-02T20:27:29;11.05;;;5.25;;
29218;SDS011;16421;50.202;7.852;2023-07-02T20:32:33;8.95;;;4.30;;
29218;SDS011;16421;50.202;7.852;2023-07-02T20:37:37;6.68;;;3.67;;
29218;SDS011;16421;50.202;7.852;2023-07-02T20:42:41;7.25;;;4.55;;
29218;SDS011;16421;50.202;7.852;2023-07-02T20:47:45;12.77;;;4.72;;
29218;SDS011;16421;50.202;7.852;2023-07-02T20:52:49;12.27;;;6.00;;
29218;SDS011;16421;50.202;7.852;2023-07-02T20:57:53;8.95;;;4.85;;
29218;SDS011;16421;50.202;7.852;2023-07-02T21:02:56;7.78;;;4.60;;
29218;SDS011;16421;50.202;7.852;2023-07-02T21:08:01;15.05;;;6.10;;
29218;SDS011;16421;50.202;7.852;2023-07-02T21:13:04;8.35;;;4.47;;
29218;SDS011;16421;50.202;7.852;2023-07-02T21:18:08;7.07;;;3.88;;
29218;SDS011;16421;50.202;7.852;2023-07-02T21:23:12;7.60;;;3.97;;
29218;SDS011;16421;50.202;7.852;2023-07-02T21:28:16;8.52;;;4.60;;
29218;SDS011;16421;50.202;7.852;2023-07-02T21:33:21;6.80;;;4.20;;
29218;SDS011;16421;50.202;7.852;2023-07-02T21:38:27;8.95;;;3.78;;
29218;SDS011;16421;50.202;7.852;2023-07-02T21:43:31;7.70;;;4.18;;
29218;SDS011;16421;50.202;7.852;2023-07-02T21:48:35;10.43;;;5.15;;
29218;SDS011;16421;50.202;7.852;2023-07-02T21:53:39;9.60;;;5.18;;
29218;SDS011;16421;50.202;7.852;2023-07-02T21:58:43;9.35;;;5.15;;
29218;SDS011;16421;50.202;7.852;2023-07-02T22:03:49;6.85;;;3.75;;
29218;SDS011;16421;50.202;7.852;2023-07-02T22:08:54;9.00;;;3.50;;
29218;SDS011;16421;50.202;7.852;2023-07-02T22:13:57;8.95;;;4.22;;
29218;SDS011;16421;50.202;7.852;2023-07-02T22:19:01;5.97;;;3.50;;
29218;SDS011;16421;50.202;7.852;2023-07-02T22:24:06;7.03;;;3.80;;
29218;SDS011;16421;50.202;7.852;2023-07-02T22:29:09;6.95;;;3.63;;
29218;SDS011;16421;50.202;7.852;2023-07-02T22:34:26;8.00;;;4.50;;
29218;SDS011;16421;50.202;7.852;2023-07-02T22:39:47;9.05;;;3.85;;
29218;SDS011;16421;50.202;7.852;2023-07-02T22:45:19;8.15;;;3.72;;
29218;SDS011;16421;50.202;7.852;2023-07-02T22:50:57;6.90;;;3.58;;
29218;SDS011;16421;50.202;7.852;2023-07-02T22:56:49;6.85;;;3.55;;
29218;SDS011;16421;50.202;7.852;2023-07-02T23:02:22;8.68;;;3.50;;
29218;SDS011;16421;50.202;7.852;2023-07-02T23:08:20;6.05;;;3.75;;
29218;SDS011;16421;50.202;7.852;2023-07-02T23:19:27;10.73;;;4.32;;
29218;SDS011;16421;50.202;7.852;2023-07-02T23:24:36;8.18;;;3.88;;
29218;SDS011;16421;50.202;7.852;2023-07-02T23:29:40;5.55;;;3.75;;
29218;SDS011;16421;50.202;7.852;2023-07-02T23:40:20;9.70;;;3.88;;
29218;SDS011;16421;50.202;7.852;2023-07-02T23:45:33;9.82;;;4.45;;
29218;SDS011;16421;50.202;7.852;2023-07-02T23:51:02;8.80;;;3.75;;
29218;SDS011;16421;50.202;7.852;2023-07-02T23:56:10;8.10;;;4.15;;
